createdAt,value
2023-04-29T00:00:29.599Z,0.00
2023-04-29T00:01:29.571Z,0.00
2023-04-29T00:02:31.829Z,0.00
2023-04-29T00:03:29.804Z,0.00
2023-04-29T00:04:29.633Z,0.00
2023-04-29T00:05:29.475Z,0.00
2023-04-29T00:06:29.463Z,0.00
2023-04-29T00:07:29.376Z,0.00
2023-04-29T00:08:29.349Z,0.00
2023-04-29T00:09:29.332Z,0.00
2023-04-29T00:10:29.351Z,0.00
2023-04-29T00:11:29.270Z,0.00
2023-04-29T00:12:29.230Z,0.00
2023-04-29T00:13:29.195Z,0.00
2023-04-29T00:14:29.173Z,0.00
2023-04-29T00:15:29.147Z,0.00
2023-04-29T00:16:29.226Z,0.00
2023-04-29T00:17:29.064Z,0.00
2023-04-29T00:18:29.028Z,0.00
2023-04-29T00:19:29.004Z,0.00
2023-04-29T00:20:28.963Z,0.00
2023-04-29T00:21:28.930Z,0.00
2023-04-29T00:22:28.943Z,0.00
2023-04-29T00:23:28.873Z,0.00
2023-04-29T00:24:28.838Z,0.00
2023-04-29T00:25:28.797Z,0.00
2023-04-29T00:26:34.481Z,0.00
2023-04-29T00:27:28.830Z,0.00
2023-04-29T00:28:28.784Z,0.00
2023-04-29T00:29:28.676Z,0.00
2023-04-29T00:30:28.638Z,0.00
2023-04-29T00:31:28.658Z,0.00
2023-04-29T00:32:28.600Z,0.00
2023-04-29T00:33:28.653Z,0.00
2023-04-29T00:34:28.514Z,0.00
2023-04-29T00:35:28.504Z,0.00
2023-04-29T00:36:28.456Z,0.00
2023-04-29T00:37:28.441Z,0.00
2023-04-29T00:38:28.378Z,0.00
2023-04-29T00:39:28.428Z,0.00
2023-04-29T00:40:28.318Z,0.00
2023-04-29T00:41:28.299Z,0.00
2023-04-29T00:42:28.258Z,0.00
2023-04-29T00:43:28.224Z,0.00
2023-04-29T00:44:28.229Z,0.00
2023-04-29T00:45:28.212Z,0.00
2023-04-29T00:46:28.282Z,0.00
2023-04-29T00:47:28.135Z,0.00
2023-04-29T00:48:28.597Z,0.00
2023-04-29T00:49:28.022Z,0.00
2023-04-29T00:50:28.594Z,0.00
2023-04-29T00:51:27.993Z,0.00
2023-04-29T00:52:27.968Z,0.00
2023-04-29T00:53:27.922Z,0.00
2023-04-29T00:54:27.861Z,0.00
2023-04-29T00:55:27.844Z,0.00
2023-04-29T00:56:29.482Z,0.00
2023-04-29T00:57:27.788Z,0.00
2023-04-29T00:58:27.783Z,0.00
2023-04-29T00:59:27.728Z,0.00
2023-04-29T01:00:28.600Z,0.00
2023-04-29T01:01:27.737Z,0.00
2023-04-29T01:02:27.668Z,0.00
2023-04-29T01:03:27.649Z,0.00
2023-04-29T01:04:27.645Z,0.00
2023-04-29T01:05:27.527Z,0.00
2023-04-29T01:06:27.486Z,0.00
2023-04-29T01:07:27.441Z,0.00
2023-04-29T01:08:27.413Z,0.00
2023-04-29T01:09:27.407Z,0.00
2023-04-29T01:10:28.989Z,0.00
2023-04-29T01:11:27.317Z,0.00
2023-04-29T01:12:27.336Z,0.00
2023-04-29T01:13:27.249Z,0.00
2023-04-29T01:14:27.237Z,0.00
2023-04-29T01:15:27.194Z,0.00
2023-04-29T01:16:27.281Z,0.00
2023-04-29T01:17:27.143Z,0.00
2023-04-29T01:18:27.105Z,0.00
2023-04-29T01:19:27.117Z,0.00
2023-04-29T01:20:27.032Z,0.00
2023-04-29T01:21:27.997Z,0.00
2023-04-29T01:22:26.971Z,0.00
2023-04-29T01:23:26.947Z,0.00
2023-04-29T01:24:26.970Z,0.00
2023-04-29T01:25:26.864Z,0.00
2023-04-29T01:26:26.834Z,0.00
2023-04-29T01:27:27.619Z,0.00
2023-04-29T01:28:26.783Z,0.00
2023-04-29T01:29:26.794Z,0.00
2023-04-29T01:30:26.713Z,0.00
2023-04-29T01:31:26.691Z,0.00
2023-04-29T01:32:26.694Z,0.00
2023-04-29T01:33:26.611Z,0.00
2023-04-29T01:34:26.586Z,0.00
2023-04-29T01:35:26.723Z,0.00
2023-04-29T01:36:26.525Z,0.00
2023-04-29T01:37:26.490Z,0.00
2023-04-29T01:38:26.477Z,0.00
2023-04-29T01:39:26.408Z,0.00
2023-04-29T01:40:26.405Z,0.00
2023-04-29T01:41:26.448Z,0.00
2023-04-29T01:42:26.342Z,0.00
2023-04-29T01:43:26.404Z,0.00
2023-04-29T01:44:26.352Z,0.00
2023-04-29T01:45:26.220Z,0.00
2023-04-29T01:46:26.251Z,0.00
2023-04-29T01:47:26.254Z,0.00
2023-04-29T01:48:26.141Z,0.00
2023-04-29T01:49:26.087Z,0.00
2023-04-29T01:50:26.065Z,0.00
2023-04-29T01:51:26.051Z,0.00
2023-04-29T01:52:26.004Z,0.00
2023-04-29T01:53:26.169Z,0.00
2023-04-29T01:54:25.937Z,0.00
2023-04-29T01:55:25.921Z,0.00
2023-04-29T01:56:25.866Z,0.00
2023-04-29T01:57:25.883Z,0.00
2023-04-29T01:58:25.807Z,0.00
2023-04-29T01:59:25.865Z,0.00
2023-04-29T02:00:25.748Z,0.00
2023-04-29T02:01:26.641Z,0.00
2023-04-29T02:02:25.740Z,0.00
2023-04-29T02:03:25.712Z,0.00
2023-04-29T02:04:25.668Z,0.00
2023-04-29T02:05:25.705Z,0.00
2023-04-29T02:06:25.542Z,0.00
2023-04-29T02:07:25.541Z,0.00
2023-04-29T02:08:25.487Z,0.00
2023-04-29T02:09:26.117Z,0.00
2023-04-29T02:10:25.415Z,0.00
2023-04-29T02:11:25.437Z,0.00
2023-04-29T02:12:25.364Z,0.00
2023-04-29T02:13:25.327Z,0.00
2023-04-29T02:14:25.299Z,0.00
2023-04-29T02:15:25.258Z,0.00
2023-04-29T02:16:25.269Z,0.00
2023-04-29T02:17:25.280Z,0.00
2023-04-29T02:18:25.155Z,0.00
2023-04-29T02:19:25.159Z,0.00
2023-04-29T02:20:25.112Z,0.00
2023-04-29T02:21:25.069Z,0.00
2023-04-29T02:22:25.095Z,0.00
2023-04-29T02:23:25.015Z,0.00
2023-04-29T02:24:24.963Z,0.00
2023-04-29T02:25:24.945Z,0.00
2023-04-29T02:26:24.913Z,0.00
2023-04-29T02:27:24.965Z,0.00
2023-04-29T02:28:24.836Z,0.00
2023-04-29T02:29:24.810Z,0.00
2023-04-29T02:30:24.775Z,0.00
2023-04-29T02:31:24.852Z,0.00
2023-04-29T02:32:24.709Z,0.00
2023-04-29T02:33:24.684Z,0.00
2023-04-29T02:34:24.647Z,0.00
2023-04-29T02:35:24.620Z,0.00
2023-04-29T02:36:24.673Z,0.00
2023-04-29T02:37:24.556Z,0.00
2023-04-29T02:38:24.539Z,0.00
2023-04-29T02:39:24.492Z,0.00
2023-04-29T02:40:24.462Z,0.00
2023-04-29T02:41:24.423Z,0.00
2023-04-29T02:42:24.470Z,0.00
2023-04-29T02:43:24.372Z,0.00
2023-04-29T02:44:24.328Z,0.00
2023-04-29T02:45:24.297Z,0.00
2023-04-29T02:46:24.391Z,0.00
2023-04-29T02:47:24.239Z,0.00
2023-04-29T02:48:24.258Z,0.00
2023-04-29T02:49:24.176Z,0.00
2023-04-29T02:50:24.129Z,0.00
2023-04-29T02:51:24.113Z,0.00
2023-04-29T02:52:24.129Z,0.00
2023-04-29T02:53:24.050Z,0.00
2023-04-29T02:54:24.005Z,0.00
2023-04-29T02:55:23.998Z,0.00
2023-04-29T02:56:23.946Z,0.00
2023-04-29T02:57:23.914Z,0.00
2023-04-29T02:58:23.930Z,0.00
2023-04-29T02:59:23.841Z,0.00
2023-04-29T03:00:23.814Z,0.00
2023-04-29T03:01:23.825Z,0.00
2023-04-29T03:02:23.917Z,0.00
2023-04-29T03:03:24.281Z,0.00
2023-04-29T03:04:23.788Z,0.00
2023-04-29T03:05:23.659Z,0.00
2023-04-29T03:06:23.620Z,0.00
2023-04-29T03:07:23.593Z,0.00
2023-04-29T03:08:23.617Z,0.00
2023-04-29T03:09:23.529Z,0.00
2023-04-29T03:10:23.493Z,0.00
2023-04-29T03:11:23.459Z,0.00
2023-04-29T03:12:23.432Z,0.00
2023-04-29T03:13:23.403Z,0.00
2023-04-29T03:14:23.416Z,0.00
2023-04-29T03:15:23.434Z,0.00
2023-04-29T03:16:23.355Z,0.00
2023-04-29T03:17:23.268Z,0.00
2023-04-29T03:18:23.313Z,0.00
2023-04-29T03:19:23.193Z,0.00
2023-04-29T03:20:23.166Z,0.00
2023-04-29T03:21:23.128Z,0.00
2023-04-29T03:22:23.098Z,0.00
2023-04-29T03:23:23.132Z,0.00
2023-04-29T03:24:23.030Z,0.00
2023-04-29T03:25:23.007Z,0.00
2023-04-29T03:26:22.991Z,0.00
2023-04-29T03:27:22.936Z,0.00
2023-04-29T03:28:22.971Z,0.00
2023-04-29T03:29:22.878Z,0.00
2023-04-29T03:30:22.851Z,0.00
2023-04-29T03:31:22.896Z,0.00
2023-04-29T03:32:22.856Z,0.00
2023-04-29T03:33:22.738Z,0.00
2023-04-29T03:34:22.806Z,0.00
2023-04-29T03:35:22.675Z,0.00
2023-04-29T03:36:22.643Z,0.00
2023-04-29T03:37:22.608Z,0.00
2023-04-29T03:38:22.585Z,0.00
2023-04-29T03:39:22.552Z,0.00
2023-04-29T03:40:22.588Z,0.00
2023-04-29T03:41:22.485Z,0.00
2023-04-29T03:42:22.458Z,0.00
2023-04-29T03:43:22.426Z,0.00
2023-04-29T03:44:22.442Z,0.00
2023-04-29T03:45:22.361Z,0.00
2023-04-29T03:46:22.419Z,0.00
2023-04-29T03:47:22.351Z,0.00
2023-04-29T03:48:22.265Z,0.00
2023-04-29T03:49:22.232Z,0.00
2023-04-29T03:50:22.192Z,0.00
2023-04-29T03:51:22.159Z,0.00
2023-04-29T03:52:22.189Z,0.00
2023-04-29T03:53:22.124Z,0.00
2023-04-29T03:54:22.072Z,0.00
2023-04-29T03:55:22.035Z,5.63
2023-04-29T03:56:22.007Z,5.63
2023-04-29T03:57:22.039Z,5.63
2023-04-29T03:58:21.997Z,5.63
2023-04-29T03:59:21.908Z,5.63
2023-04-29T04:00:21.874Z,5.63
2023-04-29T04:01:21.852Z,5.63
2023-04-29T04:02:21.960Z,5.63
2023-04-29T04:03:21.929Z,5.63
2023-04-29T04:04:21.936Z,5.63
2023-04-29T04:05:21.722Z,0.00
2023-04-29T04:06:21.690Z,5.63
2023-04-29T04:07:21.644Z,5.63
2023-04-29T04:08:21.619Z,5.63
2023-04-29T04:09:21.636Z,5.63
2023-04-29T04:10:21.620Z,5.63
2023-04-29T04:11:21.640Z,5.63
2023-04-29T04:12:25.032Z,5.63
2023-04-29T04:13:21.452Z,11.25
2023-04-29T04:14:21.420Z,11.25
2023-04-29T04:15:21.449Z,11.25
2023-04-29T04:16:21.404Z,11.25
2023-04-29T04:17:21.350Z,11.25
2023-04-29T04:18:21.399Z,11.25
2023-04-29T04:19:21.260Z,11.25
2023-04-29T04:20:21.237Z,11.25
2023-04-29T04:21:21.213Z,11.25
2023-04-29T04:22:22.145Z,11.25
2023-04-29T04:23:21.140Z,11.25
2023-04-29T04:24:21.156Z,11.25
2023-04-29T04:25:21.067Z,11.25
2023-04-29T04:26:21.036Z,11.25
2023-04-29T04:27:21.008Z,11.25
2023-04-29T04:28:20.978Z,11.25
2023-04-29T04:29:20.996Z,11.25
2023-04-29T04:30:20.948Z,11.25
2023-04-29T04:31:20.904Z,11.25
2023-04-29T04:32:20.863Z,11.25
2023-04-29T04:33:20.819Z,11.25
2023-04-29T04:34:20.780Z,11.25
2023-04-29T04:35:20.807Z,11.25
2023-04-29T04:36:20.715Z,11.25
2023-04-29T04:37:20.702Z,11.25
2023-04-29T04:38:20.665Z,11.25
2023-04-29T04:39:20.623Z,11.25
2023-04-29T04:40:20.651Z,16.88
2023-04-29T04:41:20.568Z,16.88
2023-04-29T04:42:20.533Z,16.88
2023-04-29T04:43:20.524Z,16.88
2023-04-29T04:44:20.475Z,16.88
2023-04-29T04:45:20.498Z,16.88
2023-04-29T04:46:20.452Z,16.88
2023-04-29T04:47:20.387Z,16.88
2023-04-29T04:48:20.340Z,16.88
2023-04-29T04:49:20.336Z,16.88
2023-04-29T04:50:22.053Z,16.88
2023-04-29T04:51:20.348Z,16.88
2023-04-29T04:52:20.210Z,16.88
2023-04-29T04:53:20.224Z,16.88
2023-04-29T04:54:20.149Z,16.88
2023-04-29T04:55:20.144Z,16.88
2023-04-29T04:56:20.110Z,22.50
2023-04-29T04:57:20.113Z,22.50
2023-04-29T04:58:20.033Z,22.50
2023-04-29T04:59:19.996Z,16.88
2023-04-29T05:00:19.962Z,22.50
2023-04-29T05:01:21.617Z,22.50
2023-04-29T05:02:20.058Z,22.50
2023-04-29T05:03:19.927Z,28.13
2023-04-29T05:04:19.991Z,22.50
2023-04-29T05:05:19.805Z,28.13
2023-04-29T05:06:19.770Z,28.13
2023-04-29T05:07:19.753Z,28.13
2023-04-29T05:08:19.762Z,22.50
2023-04-29T05:09:19.675Z,28.13
2023-04-29T05:10:19.643Z,28.13
2023-04-29T05:11:19.604Z,28.13
2023-04-29T05:12:19.575Z,33.75
2023-04-29T05:13:19.610Z,33.75
2023-04-29T05:14:19.501Z,39.38
2023-04-29T05:15:19.483Z,39.38
2023-04-29T05:16:19.515Z,39.38
2023-04-29T05:17:19.569Z,45.00
2023-04-29T05:18:19.389Z,39.38
2023-04-29T05:19:19.412Z,39.38
2023-04-29T05:20:19.327Z,39.38
2023-04-29T05:21:19.303Z,45.00
2023-04-29T05:22:19.286Z,45.00
2023-04-29T05:23:19.227Z,56.25
2023-04-29T05:24:19.199Z,61.88
2023-04-29T05:25:19.235Z,56.25
2023-04-29T05:26:19.135Z,56.25
2023-04-29T05:27:19.116Z,50.63
2023-04-29T05:28:19.072Z,50.63
2023-04-29T05:29:19.038Z,45.00
2023-04-29T05:30:19.006Z,50.63
2023-04-29T05:31:19.072Z,45.00
2023-04-29T05:32:18.956Z,45.00
2023-04-29T05:33:18.919Z,56.25
2023-04-29T05:34:18.879Z,56.25
2023-04-29T05:35:18.845Z,61.88
2023-04-29T05:36:18.822Z,67.50
2023-04-29T05:37:20.061Z,78.75
2023-04-29T05:38:18.799Z,73.13
2023-04-29T05:39:18.713Z,73.13
2023-04-29T05:40:18.690Z,61.88
2023-04-29T05:41:18.665Z,56.25
2023-04-29T05:42:18.620Z,61.88
2023-04-29T05:43:18.683Z,67.50
2023-04-29T05:44:18.571Z,78.75
2023-04-29T05:45:18.532Z,67.50
2023-04-29T05:46:18.515Z,73.13
2023-04-29T05:47:18.458Z,84.38
2023-04-29T05:48:18.447Z,78.75
2023-04-29T05:49:18.459Z,78.75
2023-04-29T05:50:18.375Z,90.00
2023-04-29T05:51:18.335Z,90.00
2023-04-29T05:52:18.302Z,90.00
2023-04-29T05:53:18.270Z,78.75
2023-04-29T05:54:18.340Z,73.13
2023-04-29T05:55:18.207Z,73.13
2023-04-29T05:56:18.178Z,73.13
2023-04-29T05:57:18.147Z,73.13
2023-04-29T05:58:18.112Z,73.13
2023-04-29T05:59:18.089Z,61.88
2023-04-29T06:00:18.117Z,67.50
2023-04-29T06:01:18.022Z,73.13
2023-04-29T06:02:18.104Z,67.50
2023-04-29T06:03:18.025Z,61.88
2023-04-29T06:04:18.199Z,61.88
2023-04-29T06:05:18.311Z,56.25
2023-04-29T06:06:17.963Z,61.88
2023-04-29T06:07:19.936Z,56.25
2023-04-29T06:08:17.824Z,73.13
2023-04-29T06:09:26.902Z,95.63
2023-04-29T06:10:17.769Z,84.38
2023-04-29T06:11:17.702Z,78.75
2023-04-29T06:12:17.719Z,73.13
2023-04-29T06:13:17.634Z,67.50
2023-04-29T06:14:17.622Z,61.88
2023-04-29T06:15:17.644Z,61.88
2023-04-29T06:16:17.575Z,50.63
2023-04-29T06:17:17.536Z,56.25
2023-04-29T06:18:17.539Z,50.63
2023-04-29T06:19:17.445Z,45.00
2023-04-29T06:20:18.329Z,45.00
2023-04-29T06:21:17.385Z,56.25
2023-04-29T06:22:17.365Z,50.63
2023-04-29T06:23:17.397Z,45.00
2023-04-29T06:24:17.301Z,39.38
2023-04-29T06:25:17.261Z,39.38
2023-04-29T06:26:17.225Z,39.38
2023-04-29T06:27:17.201Z,45.00
2023-04-29T06:28:17.233Z,45.00
2023-04-29T06:29:17.206Z,56.25
2023-04-29T06:30:17.093Z,73.13
2023-04-29T06:31:17.170Z,90.00
2023-04-29T06:32:18.577Z,106.88
2023-04-29T06:33:17.011Z,140.63
2023-04-29T06:34:16.981Z,151.88
2023-04-29T06:35:17.585Z,196.88
2023-04-29T06:36:16.910Z,180.00
2023-04-29T06:37:16.895Z,219.38
2023-04-29T06:38:16.845Z,202.50
2023-04-29T06:39:16.817Z,163.13
2023-04-29T06:40:16.801Z,135.00
2023-04-29T06:41:19.002Z,129.38
2023-04-29T06:42:16.725Z,157.50
2023-04-29T06:43:16.690Z,146.25
2023-04-29T06:44:16.661Z,168.75
2023-04-29T06:45:16.631Z,123.75
2023-04-29T06:46:16.624Z,106.88
2023-04-29T06:47:16.658Z,95.63
2023-04-29T06:48:16.529Z,95.63
2023-04-29T06:49:16.498Z,112.50
2023-04-29T06:50:16.464Z,112.50
2023-04-29T06:51:16.441Z,95.63
2023-04-29T06:52:16.400Z,112.50
2023-04-29T06:53:16.434Z,101.25
2023-04-29T06:54:16.334Z,106.88
2023-04-29T06:55:16.316Z,106.88
2023-04-29T06:56:17.160Z,112.50
2023-04-29T06:57:16.237Z,112.50
2023-04-29T06:58:16.223Z,106.88
2023-04-29T06:59:16.314Z,112.50
2023-04-29T07:00:16.143Z,123.75
2023-04-29T07:01:16.187Z,118.13
2023-04-29T07:02:16.117Z,140.63
2023-04-29T07:03:16.192Z,135.00
2023-04-29T07:04:16.107Z,146.25
2023-04-29T07:05:15.992Z,151.88
2023-04-29T07:06:15.966Z,157.50
2023-04-29T07:07:15.928Z,140.63
2023-04-29T07:08:15.897Z,129.38
2023-04-29T07:09:16.589Z,140.63
2023-04-29T07:10:15.837Z,123.75
2023-04-29T07:11:15.803Z,129.38
2023-04-29T07:12:15.764Z,135.00
2023-04-29T07:13:15.742Z,135.00
2023-04-29T07:14:15.693Z,123.75
2023-04-29T07:15:15.773Z,146.25
2023-04-29T07:16:15.646Z,163.13
2023-04-29T07:17:15.603Z,135.00
2023-04-29T07:18:15.576Z,140.63
2023-04-29T07:19:15.542Z,163.13
2023-04-29T07:20:15.566Z,157.50
2023-04-29T07:21:15.586Z,151.88
2023-04-29T07:22:15.433Z,151.88
2023-04-29T07:23:15.402Z,174.38
2023-04-29T07:24:15.368Z,174.38
2023-04-29T07:25:15.354Z,140.63
2023-04-29T07:26:15.367Z,168.75
2023-04-29T07:27:15.294Z,225.00
2023-04-29T07:28:15.249Z,180.00
2023-04-29T07:29:15.246Z,196.88
2023-04-29T07:30:15.197Z,208.13
2023-04-29T07:31:15.163Z,213.75
2023-04-29T07:32:15.174Z,174.38
2023-04-29T07:33:15.093Z,180.00
2023-04-29T07:34:15.064Z,157.50
2023-04-29T07:35:15.037Z,163.13
2023-04-29T07:36:15.714Z,180.00
2023-04-29T07:37:14.957Z,208.13
2023-04-29T07:38:14.997Z,208.13
2023-04-29T07:39:14.911Z,202.50
2023-04-29T07:40:14.857Z,213.75
2023-04-29T07:41:14.828Z,196.88
2023-04-29T07:42:14.792Z,213.75
2023-04-29T07:43:14.773Z,196.88
2023-04-29T07:44:15.266Z,208.13
2023-04-29T07:45:14.741Z,202.50
2023-04-29T07:46:14.686Z,213.75
2023-04-29T07:47:14.628Z,225.00
2023-04-29T07:48:14.594Z,219.38
2023-04-29T07:49:14.640Z,225.00
2023-04-29T07:50:14.534Z,213.75
2023-04-29T07:51:14.522Z,213.75
2023-04-29T07:52:14.466Z,191.25
2023-04-29T07:53:14.433Z,174.38
2023-04-29T07:54:14.424Z,163.13
2023-04-29T07:55:14.417Z,163.13
2023-04-29T07:56:14.343Z,168.75
2023-04-29T07:57:14.303Z,168.75
2023-04-29T07:58:14.288Z,174.38
2023-04-29T07:59:14.238Z,185.63
2023-04-29T08:00:14.209Z,174.38
2023-04-29T08:01:14.238Z,180.00
2023-04-29T08:02:14.224Z,191.25
2023-04-29T08:03:14.216Z,157.50
2023-04-29T08:04:14.395Z,151.88
2023-04-29T08:05:14.399Z,168.75
2023-04-29T08:06:14.093Z,140.63
2023-04-29T08:07:14.060Z,168.75
2023-04-29T08:08:13.954Z,196.88
2023-04-29T08:09:13.924Z,213.75
2023-04-29T08:10:13.881Z,213.75
2023-04-29T08:11:13.864Z,225.00
2023-04-29T08:12:13.886Z,213.75
2023-04-29T08:13:13.858Z,208.13
2023-04-29T08:14:13.805Z,208.13
2023-04-29T08:15:13.725Z,185.63
2023-04-29T08:16:13.744Z,191.25
2023-04-29T08:17:13.661Z,191.25
2023-04-29T08:18:13.624Z,157.50
2023-04-29T08:19:13.659Z,174.38
2023-04-29T08:20:13.576Z,168.75
2023-04-29T08:21:13.534Z,157.50
2023-04-29T08:22:13.506Z,151.88
2023-04-29T08:23:13.466Z,140.63
2023-04-29T08:24:13.438Z,146.25
2023-04-29T08:25:13.512Z,163.13
2023-04-29T08:26:13.370Z,157.50
2023-04-29T08:27:13.357Z,151.88
2023-04-29T08:28:13.329Z,135.00
2023-04-29T08:29:13.268Z,151.88
2023-04-29T08:30:13.261Z,135.00
2023-04-29T08:31:13.285Z,146.25
2023-04-29T08:32:13.183Z,157.50
2023-04-29T08:33:13.205Z,151.88
2023-04-29T08:34:13.114Z,146.25
2023-04-29T08:35:13.082Z,168.75
2023-04-29T08:36:13.052Z,146.25
2023-04-29T08:37:13.077Z,123.75
2023-04-29T08:38:12.977Z,135.00
2023-04-29T08:39:12.958Z,123.75
2023-04-29T08:40:12.917Z,129.38
2023-04-29T08:41:12.887Z,129.38
2023-04-29T08:42:12.934Z,135.00
2023-04-29T08:43:12.899Z,135.00
2023-04-29T08:44:12.790Z,135.00
2023-04-29T08:45:12.758Z,135.00
2023-04-29T08:46:12.773Z,135.00
2023-04-29T08:47:12.697Z,129.38
2023-04-29T08:48:12.805Z,140.63
2023-04-29T08:49:12.683Z,129.38
2023-04-29T08:50:12.595Z,146.25
2023-04-29T08:51:12.570Z,135.00
2023-04-29T08:52:12.525Z,118.13
2023-04-29T08:53:12.557Z,118.13
2023-04-29T08:54:12.461Z,118.13
2023-04-29T08:55:12.439Z,112.50
2023-04-29T08:56:12.413Z,118.13
2023-04-29T08:57:12.365Z,112.50
2023-04-29T08:58:12.332Z,112.50
2023-04-29T08:59:12.348Z,135.00
2023-04-29T09:00:12.274Z,146.25
2023-04-29T09:01:12.257Z,140.63
2023-04-29T09:02:12.213Z,146.25
2023-04-29T09:03:12.242Z,157.50
2023-04-29T09:04:12.174Z,151.88
2023-04-29T09:05:12.158Z,151.88
2023-04-29T09:06:12.081Z,129.38
2023-04-29T09:07:12.041Z,123.75
2023-04-29T09:08:12.026Z,129.38
2023-04-29T09:09:11.979Z,191.25
2023-04-29T09:10:12.059Z,151.88
2023-04-29T09:11:11.912Z,123.75
2023-04-29T09:12:11.880Z,118.13
2023-04-29T09:13:11.889Z,118.13
2023-04-29T09:14:11.820Z,123.75
2023-04-29T09:15:11.775Z,163.13
2023-04-29T09:16:11.869Z,146.25
2023-04-29T09:17:11.706Z,157.50
2023-04-29T09:18:11.696Z,191.25
2023-04-29T09:19:11.650Z,157.50
2023-04-29T09:20:11.616Z,168.75
2023-04-29T09:21:11.589Z,163.13
2023-04-29T09:22:11.620Z,146.25
2023-04-29T09:23:11.516Z,146.25
2023-04-29T09:24:11.483Z,140.63
2023-04-29T09:25:11.517Z,140.63
2023-04-29T09:26:11.427Z,151.88
2023-04-29T09:27:11.385Z,146.25
2023-04-29T09:28:11.414Z,135.00
2023-04-29T09:29:11.330Z,129.38
2023-04-29T09:30:11.288Z,135.00
2023-04-29T09:31:11.260Z,180.00
2023-04-29T09:32:11.226Z,191.25
2023-04-29T09:33:11.246Z,180.00
2023-04-29T09:34:11.206Z,174.38
2023-04-29T09:35:11.128Z,202.50
2023-04-29T09:36:11.100Z,202.50
2023-04-29T09:37:11.067Z,168.75
2023-04-29T09:38:11.027Z,157.50
2023-04-29T09:39:11.012Z,146.25
2023-04-29T09:40:14.626Z,140.63
2023-04-29T09:41:10.949Z,140.63
2023-04-29T09:42:10.961Z,157.50
2023-04-29T09:43:10.875Z,157.50
2023-04-29T09:44:11.747Z,163.13
2023-04-29T09:45:10.873Z,163.13
2023-04-29T09:46:10.812Z,180.00
2023-04-29T09:47:11.630Z,180.00
2023-04-29T09:48:10.710Z,163.13
2023-04-29T09:49:10.682Z,191.25
2023-04-29T09:50:10.668Z,202.50
2023-04-29T09:51:10.605Z,174.38
2023-04-29T09:52:10.717Z,168.75
2023-04-29T09:53:10.550Z,180.00
2023-04-29T09:54:10.561Z,185.63
2023-04-29T09:55:10.519Z,180.00
2023-04-29T09:56:10.452Z,168.75
2023-04-29T09:57:10.421Z,180.00
2023-04-29T09:58:10.443Z,202.50
2023-04-29T09:59:10.384Z,191.25
2023-04-29T10:00:10.338Z,191.25
2023-04-29T10:01:10.350Z,185.63
2023-04-29T10:02:10.318Z,225.00
2023-04-29T10:03:10.269Z,236.25
2023-04-29T10:04:10.321Z,264.38
2023-04-29T10:05:10.354Z,258.75
2023-04-29T10:06:10.120Z,270.00
2023-04-29T10:07:10.099Z,247.50
2023-04-29T10:08:10.061Z,258.75
2023-04-29T10:09:10.050Z,241.88
2023-04-29T10:10:12.643Z,241.88
2023-04-29T10:11:15.650Z,230.63
2023-04-29T10:12:09.915Z,230.63
2023-04-29T10:13:09.875Z,208.13
2023-04-29T10:14:09.888Z,191.25
2023-04-29T10:15:09.830Z,191.25
2023-04-29T10:16:09.872Z,185.63
2023-04-29T10:17:09.763Z,191.25
2023-04-29T10:18:09.780Z,185.63
2023-04-29T10:19:09.734Z,185.63
2023-04-29T10:20:09.691Z,180.00
2023-04-29T10:21:09.635Z,196.88
2023-04-29T10:22:09.684Z,191.25
2023-04-29T10:23:09.618Z,225.00
2023-04-29T10:24:09.538Z,264.38
2023-04-29T10:25:09.507Z,241.88
2023-04-29T10:26:09.498Z,281.25
2023-04-29T10:27:09.560Z,270.00
2023-04-29T10:28:09.397Z,247.50
2023-04-29T10:29:09.365Z,230.63
2023-04-29T10:30:09.331Z,230.63
2023-04-29T10:31:09.368Z,196.88
2023-04-29T10:32:09.291Z,168.75
2023-04-29T10:33:09.334Z,157.50
2023-04-29T10:34:09.232Z,151.88
2023-04-29T10:35:09.191Z,151.88
2023-04-29T10:36:09.166Z,168.75
2023-04-29T10:37:09.103Z,180.00
2023-04-29T10:38:09.103Z,180.00
2023-04-29T10:39:09.100Z,163.13
2023-04-29T10:40:09.019Z,168.75
2023-04-29T10:41:08.992Z,180.00
2023-04-29T10:42:08.993Z,208.13
2023-04-29T10:43:08.916Z,219.38
2023-04-29T10:44:08.890Z,225.00
2023-04-29T10:45:08.966Z,303.75
2023-04-29T10:46:08.905Z,241.88
2023-04-29T10:47:08.774Z,213.75
2023-04-29T10:48:08.838Z,230.63
2023-04-29T10:49:08.742Z,225.00
2023-04-29T10:50:08.684Z,236.25
2023-04-29T10:51:08.647Z,253.13
2023-04-29T10:52:08.736Z,258.75
2023-04-29T10:53:08.610Z,247.50
2023-04-29T10:54:08.572Z,230.63
2023-04-29T10:55:08.521Z,225.00
2023-04-29T10:56:08.509Z,247.50
2023-04-29T10:57:08.450Z,230.63
2023-04-29T10:58:08.512Z,230.63
2023-04-29T10:59:08.398Z,309.38
2023-04-29T11:00:08.356Z,348.75
2023-04-29T11:01:08.380Z,348.75
2023-04-29T11:02:08.316Z,320.63
2023-04-29T11:03:08.344Z,315.00
2023-04-29T11:04:08.383Z,354.38
2023-04-29T11:05:08.235Z,393.75
2023-04-29T11:06:08.258Z,450.00
2023-04-29T11:07:08.170Z,472.50
2023-04-29T11:08:08.118Z,495.00
2023-04-29T11:09:08.068Z,500.63
2023-04-29T11:10:08.092Z,534.38
2023-04-29T11:11:08.006Z,585.00
2023-04-29T11:12:08.002Z,596.25
2023-04-29T11:13:08.005Z,601.88
2023-04-29T11:14:07.920Z,601.88
2023-04-29T11:15:07.934Z,573.75
2023-04-29T11:16:08.116Z,483.75
2023-04-29T11:17:07.840Z,489.38
2023-04-29T11:18:08.685Z,444.38
2023-04-29T11:19:07.767Z,399.38
2023-04-29T11:20:07.753Z,292.50
2023-04-29T11:21:07.723Z,281.25
2023-04-29T11:22:07.720Z,309.38
2023-04-29T11:23:07.653Z,506.25
2023-04-29T11:24:07.662Z,691.88
2023-04-29T11:25:07.599Z,618.75
2023-04-29T11:26:07.540Z,596.25
2023-04-29T11:27:07.515Z,675.00
2023-04-29T11:28:07.549Z,804.38
2023-04-29T11:29:07.443Z,855.00
2023-04-29T11:30:07.419Z,855.00
2023-04-29T11:31:07.407Z,849.38
2023-04-29T11:32:07.525Z,821.25
2023-04-29T11:33:07.414Z,765.00
2023-04-29T11:34:07.460Z,652.50
2023-04-29T11:35:07.284Z,556.88
2023-04-29T11:36:07.241Z,405.00
2023-04-29T11:37:07.192Z,382.50
2023-04-29T11:38:07.162Z,348.75
2023-04-29T11:39:07.152Z,281.25
2023-04-29T11:40:07.203Z,281.25
2023-04-29T11:41:07.077Z,281.25
2023-04-29T11:42:07.100Z,202.50
2023-04-29T11:43:07.016Z,219.38
2023-04-29T11:44:06.982Z,275.63
2023-04-29T11:45:06.979Z,315.00
2023-04-29T11:46:07.146Z,326.25
2023-04-29T11:47:06.883Z,253.13
2023-04-29T11:48:06.934Z,230.63
2023-04-29T11:49:06.862Z,213.75
2023-04-29T11:50:06.799Z,230.63
2023-04-29T11:51:06.861Z,225.00
2023-04-29T11:52:06.763Z,309.38
2023-04-29T11:53:06.693Z,421.88
2023-04-29T11:54:08.218Z,511.88
2023-04-29T11:55:06.636Z,438.75
2023-04-29T11:56:06.620Z,315.00
2023-04-29T11:57:06.670Z,241.88
2023-04-29T11:58:06.631Z,230.63
2023-04-29T11:59:06.534Z,365.63
2023-04-29T12:00:08.681Z,343.13
2023-04-29T12:01:06.475Z,410.63
2023-04-29T12:02:06.452Z,360.00
2023-04-29T12:03:06.588Z,562.50
2023-04-29T12:04:06.548Z,658.13
2023-04-29T12:05:06.733Z,545.63
2023-04-29T12:06:08.301Z,528.75
2023-04-29T12:07:06.269Z,528.75
2023-04-29T12:08:06.285Z,551.25
2023-04-29T12:09:06.310Z,579.38
2023-04-29T12:10:06.198Z,596.25
2023-04-29T12:11:06.183Z,455.63
2023-04-29T12:12:08.020Z,455.63
2023-04-29T12:13:06.687Z,438.75
2023-04-29T12:14:06.045Z,500.63
2023-04-29T12:15:06.127Z,455.63
2023-04-29T12:16:06.055Z,523.13
2023-04-29T12:17:05.960Z,545.63
2023-04-29T12:18:05.973Z,382.50
2023-04-29T12:19:05.920Z,540.00
2023-04-29T12:20:05.871Z,466.88
2023-04-29T12:21:05.907Z,315.00
2023-04-29T12:22:08.070Z,331.88
2023-04-29T12:23:05.891Z,511.88
2023-04-29T12:24:05.765Z,472.50
2023-04-29T12:25:05.789Z,433.13
2023-04-29T12:26:05.673Z,421.88
2023-04-29T12:27:05.705Z,466.88
2023-04-29T12:28:08.425Z,517.50
2023-04-29T12:29:05.607Z,506.25
2023-04-29T12:30:05.884Z,483.75
2023-04-29T12:31:05.595Z,596.25
2023-04-29T12:32:05.514Z,562.50
2023-04-29T12:33:05.567Z,630.00
2023-04-29T12:34:08.290Z,691.88
2023-04-29T12:35:05.528Z,781.88
2023-04-29T12:36:05.397Z,736.88
2023-04-29T12:37:05.362Z,736.88
2023-04-29T12:38:05.328Z,776.25
2023-04-29T12:39:05.286Z,742.50
2023-04-29T12:40:05.251Z,838.13
2023-04-29T12:41:05.271Z,826.88
2023-04-29T12:42:05.198Z,793.13
2023-04-29T12:43:05.180Z,770.63
2023-04-29T12:44:05.144Z,810.00
2023-04-29T12:45:05.148Z,804.38
2023-04-29T12:46:05.178Z,787.50
2023-04-29T12:47:05.181Z,765.00
2023-04-29T12:48:09.187Z,804.38